createdAt,value
2019-02-14T00:02:01.306Z,165.93
2019-02-14T00:06:12.294Z,167.40
2019-02-14T00:10:24.701Z,168.50
2019-02-14T00:14:36.198Z,162.67
2019-02-14T00:18:47.266Z,170.33
2019-02-14T00:22:57.977Z,166.07
2019-02-14T00:27:09.097Z,168.30
2019-02-14T00:31:20.121Z,172.40
2019-02-14T00:35:31.461Z,179.33
2019-02-14T00:39:42.868Z,174.47
2019-02-14T00:43:54.032Z,167.60
2019-02-14T00:48:05.162Z,171.83
2019-02-14T00:52:16.163Z,166.90
2019-02-14T00:56:27.375Z,171.77
2019-02-14T01:00:38.811Z,167.97
2019-02-14T01:04:49.965Z,174.03
2019-02-14T01:09:00.957Z,166.77
2019-02-14T01:13:11.963Z,164.47
2019-02-14T01:17:23.802Z,166.17
2019-02-14T01:21:36.370Z,165.23
2019-02-14T01:25:48.760Z,166.33
2019-02-14T01:29:59.765Z,169.77
2019-02-14T01:34:10.875Z,171.40
2019-02-14T01:38:22.232Z,171.27
2019-02-14T01:42:33.361Z,173.90
2019-02-14T01:46:44.779Z,168.53
2019-02-14T01:50:55.813Z,168.20
2019-02-14T01:55:07.825Z,162.67
2019-02-14T01:59:18.879Z,170.27
2019-02-14T02:03:29.873Z,170.53
2019-02-14T02:07:42.414Z,171.70
2019-02-14T02:11:53.682Z,164.37
2019-02-14T02:16:04.696Z,165.70
2019-02-14T02:20:15.898Z,167.23
2019-02-14T02:24:27.001Z,171.00
2019-02-14T02:28:39.693Z,166.97
2019-02-14T02:32:51.216Z,169.50
2019-02-14T02:37:02.240Z,164.30
2019-02-14T02:41:13.286Z,166.87
2019-02-14T02:45:24.589Z,162.70
2019-02-14T02:49:35.635Z,162.13
2019-02-14T02:53:48.358Z,164.90
2019-02-14T02:57:59.406Z,169.73
2019-02-14T03:02:13.139Z,165.70
2019-02-14T03:06:24.191Z,171.27
2019-02-14T03:10:37.174Z,167.53
2019-02-14T03:14:47.229Z,169.33
2019-02-14T03:18:58.234Z,164.13
2019-02-14T03:23:09.330Z,167.37
2019-02-14T03:27:20.448Z,170.03
2019-02-14T03:31:33.606Z,165.57
2019-02-14T03:35:44.597Z,164.87
2019-02-14T03:39:56.400Z,163.37
2019-02-14T03:44:06.413Z,163.90
2019-02-14T03:48:17.432Z,167.17
2019-02-14T03:52:28.650Z,163.03
2019-02-14T03:56:39.654Z,166.07
2019-02-14T04:00:50.651Z,168.30
2019-02-14T04:05:02.889Z,164.40
2019-02-14T04:09:13.901Z,164.93
2019-02-14T04:13:25.305Z,163.70
2019-02-14T04:17:36.325Z,165.10
2019-02-14T04:21:47.440Z,178.50
2019-02-14T04:25:59.573Z,170.70
2019-02-14T04:30:14.484Z,176.53
2019-02-14T04:34:25.493Z,171.30
2019-02-14T04:38:37.767Z,168.33
2019-02-14T04:42:48.767Z,168.57
2019-02-14T04:46:59.778Z,164.63
2019-02-14T04:51:10.875Z,168.30
2019-02-14T04:55:22.595Z,166.45
2019-02-14T04:59:33.684Z,171.60
2019-02-14T05:03:44.785Z,164.60
2019-02-14T05:07:55.454Z,164.27
2019-02-14T05:12:06.028Z,164.13
2019-02-14T05:16:17.029Z,166.13
2019-02-14T05:20:28.017Z,164.37
2019-02-14T05:24:39.003Z,165.90
2019-02-14T05:28:49.997Z,164.63
2019-02-14T05:33:01.093Z,166.80
2019-02-14T05:37:12.080Z,164.73
2019-02-14T05:41:23.083Z,175.27
2019-02-14T05:45:34.091Z,165.73
2019-02-14T05:49:45.089Z,169.30
2019-02-14T05:53:56.194Z,168.77
2019-02-14T05:58:08.143Z,164.90
2019-02-14T06:02:19.526Z,166.90
2019-02-14T06:06:30.625Z,166.83
2019-02-14T06:10:41.813Z,167.93
2019-02-14T06:14:52.827Z,169.53
2019-02-14T06:19:05.727Z,175.37
2019-02-14T06:23:18.400Z,172.35
2019-02-14T06:27:29.503Z,172.13
2019-02-14T06:31:40.607Z,167.17
2019-02-14T06:35:53.078Z,165.00
2019-02-14T06:40:19.916Z,163.10
2019-02-14T06:44:30.479Z,164.70
2019-02-14T06:48:41.617Z,165.13
2019-02-14T06:52:53.549Z,163.00
2019-02-14T06:57:04.552Z,164.27
2019-02-14T07:01:15.547Z,167.70
2019-02-14T07:05:27.205Z,169.53
2019-02-14T07:09:38.313Z,163.43
2019-02-14T07:13:48.868Z,173.00
2019-02-14T07:17:59.969Z,164.03
2019-02-14T07:22:11.730Z,166.43
2019-02-14T07:26:22.879Z,164.50
2019-02-14T07:30:37.629Z,162.70
2019-02-14T07:34:49.621Z,165.90
2019-02-14T07:39:00.626Z,167.50
2019-02-14T07:43:12.396Z,163.13
2019-02-14T07:47:26.390Z,164.87
2019-02-14T07:51:36.623Z,163.23
2019-02-14T07:55:47.834Z,166.23
2019-02-14T07:59:58.958Z,174.50
2019-02-14T08:04:10.059Z,163.13
2019-02-14T08:08:21.052Z,166.27
2019-02-14T08:12:32.068Z,165.77
2019-02-14T08:16:43.605Z,167.00
2019-02-14T08:20:55.663Z,162.67
2019-02-14T08:25:08.966Z,168.80
2019-02-14T08:29:19.957Z,168.70
2019-02-14T08:33:30.990Z,172.17
2019-02-14T08:37:45.734Z,174.80
2019-02-14T08:41:55.391Z,173.20
2019-02-14T08:46:05.505Z,164.13
2019-02-14T08:50:16.632Z,169.50
2019-02-14T08:54:27.845Z,176.37
2019-02-14T08:58:39.504Z,170.10
2019-02-14T09:02:50.520Z,168.50
2019-02-14T09:07:01.515Z,170.20
2019-02-14T09:11:12.646Z,166.30
2019-02-14T09:15:23.755Z,171.07
2019-02-14T09:19:34.744Z,167.47
2019-02-14T09:23:49.678Z,162.97
2019-02-14T09:28:00.681Z,164.40
2019-02-14T09:32:11.705Z,167.70
2019-02-14T09:36:22.817Z,170.07
2019-02-14T09:40:35.559Z,165.50
2019-02-14T09:44:46.555Z,172.47
2019-02-14T09:48:56.699Z,162.83
2019-02-14T09:53:07.722Z,176.63
2019-02-14T09:57:18.748Z,176.70
2019-02-14T10:01:29.843Z,170.60
2019-02-14T10:05:40.961Z,173.17
2019-02-14T10:09:51.175Z,172.13
2019-02-14T10:14:03.632Z,163.97
2019-02-14T10:18:14.999Z,167.40
2019-02-14T10:22:26.245Z,167.50
2019-02-14T10:26:37.247Z,165.57
2019-02-14T10:30:49.152Z,165.53
2019-02-14T10:35:01.796Z,168.40
2019-02-14T10:39:14.022Z,168.30
2019-02-14T10:43:25.028Z,172.80
2019-02-14T10:47:36.371Z,172.57
2019-02-14T10:51:47.475Z,170.20
2019-02-14T10:55:58.595Z,171.97
2019-02-14T11:00:16.217Z,173.83
2019-02-14T11:04:27.055Z,173.53
2019-02-14T11:08:38.257Z,170.45
2019-02-14T11:12:49.266Z,176.95
2019-02-14T11:17:00.332Z,173.10
2019-02-14T11:21:11.439Z,173.35
2019-02-14T11:25:28.864Z,183.52
2019-02-14T11:29:39.878Z,182.22
2019-02-14T11:33:50.990Z,179.38
2019-02-14T11:38:02.113Z,183.65
2019-02-14T11:42:13.140Z,179.05
2019-02-14T11:46:24.248Z,176.18
2019-02-14T11:50:36.374Z,176.23
2019-02-14T11:54:47.790Z,181.40
2019-02-14T11:58:58.892Z,176.47
2019-02-14T12:03:10.000Z,178.07
2019-02-14T12:07:21.022Z,177.20
2019-02-14T12:11:32.028Z,172.68
2019-02-14T12:15:43.072Z,174.53
2019-02-14T12:19:54.068Z,176.00
2019-02-14T12:24:05.217Z,176.55
2019-02-14T12:28:16.240Z,182.72
2019-02-14T12:32:27.262Z,178.07
2019-02-14T12:36:38.292Z,174.60
2019-02-14T12:40:49.280Z,179.03
2019-02-14T12:45:01.857Z,185.07
2019-02-14T12:49:12.867Z,178.95
2019-02-14T12:53:23.865Z,179.53
2019-02-14T12:57:34.878Z,177.53
2019-02-14T13:01:46.026Z,179.67
2019-02-14T13:05:57.058Z,170.60
2019-02-14T13:10:13.989Z,173.55
2019-02-14T13:14:25.221Z,172.10
2019-02-14T13:18:36.345Z,172.25
2019-02-14T13:22:47.345Z,167.85
2019-02-14T13:26:58.449Z,175.82
2019-02-14T13:31:09.480Z,171.72
2019-02-14T13:35:21.823Z,170.57
2019-02-14T13:39:32.979Z,174.75
2019-02-14T13:43:44.365Z,176.70
2019-02-14T13:47:55.441Z,166.77
2019-02-14T13:52:06.716Z,169.57
2019-02-14T13:56:17.747Z,179.55
2019-02-14T14:00:30.930Z,179.72
2019-02-14T14:04:41.996Z,181.15
2019-02-14T14:08:52.996Z,175.57
2019-02-14T14:13:04.003Z,170.72
2019-02-14T14:17:15.014Z,174.33
2019-02-14T14:21:27.096Z,173.32
2019-02-14T14:25:38.165Z,178.43
2019-02-14T14:29:49.573Z,172.10
2019-02-14T14:34:00.782Z,173.45
2019-02-14T14:38:11.829Z,175.72
2019-02-14T14:42:40.526Z,171.20
2019-02-14T14:46:51.540Z,170.25
2019-02-14T14:51:02.643Z,172.40
2019-02-14T14:55:13.669Z,177.72
2019-02-14T14:59:24.835Z,180.90
2019-02-14T15:03:36.037Z,176.18
2019-02-14T15:07:47.058Z,174.68
2019-02-14T15:11:58.715Z,176.80
2019-02-14T15:16:09.738Z,174.77
2019-02-14T15:20:21.194Z,183.87
2019-02-14T15:24:32.437Z,182.47
2019-02-14T15:28:43.536Z,179.05
2019-02-14T15:32:56.176Z,179.75
2019-02-14T15:37:09.984Z,182.37
2019-02-14T15:41:21.086Z,189.40
2019-02-14T15:45:32.389Z,178.73
2019-02-14T15:49:44.724Z,175.70
2019-02-14T15:53:55.838Z,173.78
2019-02-14T15:58:09.176Z,173.70
2019-02-14T16:02:21.038Z,170.92
2019-02-14T16:06:32.168Z,171.95
2019-02-14T16:10:43.637Z,173.17
2019-02-14T16:14:55.411Z,177.68
2019-02-14T16:19:08.713Z,172.00
2019-02-14T16:23:19.355Z,172.83
2019-02-14T16:27:31.159Z,174.53
2019-02-14T16:31:42.557Z,173.83
2019-02-14T16:35:55.658Z,171.57
2019-02-14T16:40:09.101Z,177.60
2019-02-14T16:44:20.706Z,171.63
2019-02-14T16:48:31.852Z,183.30
2019-02-14T16:52:43.261Z,175.60
2019-02-14T16:56:55.583Z,186.80
2019-02-14T17:01:07.133Z,178.10
2019-02-14T17:05:19.847Z,175.03
2019-02-14T17:09:30.518Z,179.00
2019-02-14T17:13:41.769Z,177.47
2019-02-14T17:17:52.778Z,172.03
2019-02-14T17:22:03.869Z,174.57
2019-02-14T17:26:14.888Z,175.67
2019-02-14T17:30:25.814Z,174.27
2019-02-14T17:34:37.876Z,174.30
2019-02-14T17:38:49.315Z,176.10
2019-02-14T17:43:00.628Z,174.37
2019-02-14T17:47:11.720Z,173.30
2019-02-14T17:51:23.416Z,167.40
2019-02-14T17:55:34.407Z,180.33
2019-02-14T17:59:45.513Z,175.83
2019-02-14T18:03:56.552Z,170.97
2019-02-14T18:08:07.557Z,172.80
2019-02-14T18:12:18.704Z,171.93
2019-02-14T18:16:31.474Z,175.00
2019-02-14T18:20:43.187Z,173.50
2019-02-14T18:24:54.276Z,175.93
2019-02-14T18:29:05.404Z,175.93
2019-02-14T18:33:16.073Z,176.90
2019-02-14T18:37:28.496Z,176.00
2019-02-14T18:41:39.561Z,178.80
2019-02-14T18:45:50.691Z,171.47
2019-02-14T18:50:01.836Z,168.87
2019-02-14T18:54:11.959Z,171.03
2019-02-14T18:58:26.310Z,174.07
2019-02-14T19:02:37.333Z,175.03
2019-02-14T19:06:48.324Z,175.30
2019-02-14T19:10:59.336Z,174.83
2019-02-14T19:15:12.004Z,173.70
2019-02-14T19:19:23.005Z,176.83
2019-02-14T19:23:35.311Z,173.20
2019-02-14T19:27:46.577Z,171.00
2019-02-14T19:31:59.408Z,179.30
2019-02-14T19:36:10.360Z,171.83
2019-02-14T19:40:21.393Z,176.83
2019-02-14T19:44:32.432Z,181.37
2019-02-14T19:48:44.343Z,201.57
2019-02-14T19:52:56.139Z,173.93
2019-02-14T19:57:08.807Z,187.17
2019-02-14T20:01:19.985Z,172.62
2019-02-14T20:05:31.091Z,175.50
2019-02-14T20:09:43.069Z,170.17
2019-02-14T20:13:53.494Z,171.20
2019-02-14T20:18:06.554Z,175.27
2019-02-14T20:22:17.831Z,170.77
2019-02-14T20:26:28.974Z,171.90
2019-02-14T20:30:40.937Z,169.25
2019-02-14T20:34:54.024Z,172.23
2019-02-14T20:39:07.198Z,172.20
2019-02-14T20:43:19.845Z,167.40
2019-02-14T20:47:30.956Z,165.83
2019-02-14T20:51:41.929Z,165.27
2019-02-14T20:55:56.012Z,170.97
2019-02-14T21:00:11.576Z,170.03
2019-02-14T21:04:23.400Z,172.23
2019-02-14T21:08:36.058Z,169.00
2019-02-14T21:12:47.256Z,173.20
2019-02-14T21:16:58.362Z,170.80
2019-02-14T21:21:09.463Z,169.70
2019-02-14T21:25:22.784Z,167.77
2019-02-14T21:29:33.127Z,167.77
2019-02-14T21:33:44.262Z,165.20
2019-02-14T21:37:55.283Z,168.13
2019-02-14T21:42:19.881Z,174.47
2019-02-14T21:46:19.000Z,169.37
2019-02-14T21:50:30.010Z,166.50
2019-02-14T21:54:41.017Z,164.67
2019-02-14T21:58:52.030Z,165.50
2019-02-14T22:03:03.088Z,167.53
2019-02-14T22:07:14.051Z,169.03
2019-02-14T22:11:25.055Z,164.20
2019-02-14T22:15:36.614Z,168.47
2019-02-14T22:19:47.705Z,172.80
2019-02-14T22:23:59.768Z,167.90
2019-02-14T22:28:10.842Z,169.00
2019-02-14T22:32:22.822Z,172.33
2019-02-14T22:36:33.952Z,166.60
2019-02-14T22:40:45.119Z,169.67
2019-02-14T22:44:57.859Z,170.93
2019-02-14T22:49:08.887Z,164.43
2019-02-14T22:53:20.365Z,166.23
2019-02-14T22:57:31.584Z,163.60
2019-02-14T23:01:44.209Z,169.23
2019-02-14T23:05:55.514Z,164.37
2019-02-14T23:10:06.797Z,182.93
2019-02-14T23:14:18.036Z,164.27
2019-02-14T23:18:29.044Z,164.57
2019-02-14T23:22:40.048Z,163.20
2019-02-14T23:26:51.050Z,166.40
2019-02-14T23:31:02.167Z,166.77
2019-02-14T23:35:13.276Z,163.97
2019-02-14T23:39:24.441Z,160.87
2019-02-14T23:43:35.435Z,164.63
2019-02-14T23:47:46.526Z,164.90
2019-02-14T23:51:57.626Z,165.23
2019-02-14T23:56:09.072Z,163.97
